Latest Weather Observations for Williamtown

IDN60801

Issued at 10:02 pm EST Friday 4 September 2015 (issued every 30 minutes, with the page automatically refreshed every 10 minutes)

About weather observations | Map of weather stations | Latest weather observations for NSW | Other Formats
Station Details ID: 061078 Name: WILLIAMTOWN RAAF Lat: -32.79 Lon: 151.84 Height: 9.0 m
Data from the previous 72 hours. | See also: Recent months at Williamtown
Date/Time
EST
Temp
°C
App
Temp
°C
Dew
Point
Rel
Hum
%
Delta-T
°C
Wind Press
QNH
hPa
Press
MSL
hPa
Rain
since 9 am
mm
Dir
 
Spd
km/h
Gust
km/h
Spd
kts
Gust
kts
04/10:00pm 13.1 13.9 12.7 97 0.2 CALM 0 0 0 0 1022.4 1022.4 -
04/09:30pm 13.1 12.6 12.7 97 0.2 NW 7 7 4 4 1022.4 1022.4 15.4
04/09:00pm 13.4 12.6 12.8 96 0.3 NNW 9 9 5 5 1022.4 1022.4 15.4
04/08:30pm 13.6 13.4 12.9 95 0.4 NNW 6 7 3 4 1022.3 1022.3 15.4
04/08:00pm 14.0 13.3 13.1 94 0.5 NW 9 11 5 6 1022.3 1022.3 15.4
04/07:30pm 13.8 13.4 12.9 94 0.5 NNW 7 9 4 5 1022.1 1022.1 15.4
04/07:00pm 13.8 13.3 12.5 92 0.7 NNW 7 9 4 5 1021.9 1021.9 15.4
04/06:30pm 13.7 14.6 12.8 94 0.5 CALM 0 0 0 0 1021.5 1021.5 15.4
04/06:00pm 14.7 14.0 11.9 83 1.5 SW 7 9 4 5 1021.3 1021.3 15.4
04/05:30pm 15.6 14.6 11.1 74 2.4 SSW 7 9 4 5 1021.2 1021.2 15.4
04/05:00pm 16.2 15.1 11.8 75 2.4 SW 9 11 5 6 1021.0 1021.0 15.4
04/04:30pm 16.0 14.4 11.5 74 2.4 S 11 17 6 9 1020.8 1020.8 15.4
04/04:00pm 15.8 16.1 13.5 86 1.3 SW 4 13 2 7 1020.8 1020.8 15.4
04/03:30pm 15.3 14.9 14.1 92 0.7 WNW 9 11 5 6 1020.7 1020.7 15.4
04/03:00pm 14.9 13.6 13.6 92 0.7 W 13 19 7 10 1020.7 1020.7 15.0
04/02:38pm 15.1 13.5 13.8 92 0.7 SSW 15 26 8 14 1020.7 1020.7 14.8
04/02:30pm 14.9 11.8 12.3 84 1.4 S 20 30 11 16 1020.6 1020.5 14.8
04/02:28pm 14.8 11.9 12.2 84 1.4 S 19 30 10 16 1020.6 1020.5 14.8
04/02:00pm 15.3 13.2 13.7 90 0.9 S 17 28 9 15 1020.7 1020.7 14.6
04/01:50pm 15.0 12.3 13.6 91 0.8 SSW 20 28 11 15 1020.7 1020.7 14.6
04/01:30pm 15.1 11.6 13.5 90 0.9 SSW 24 35 13 19 1020.7 1020.7 14.6
04/01:00pm 16.2 12.6 13.1 82 1.7 SSW 24 33 13 18 1020.7 1020.7 14.6
04/12:53pm 16.6 13.2 13.8 83 1.6 SSW 24 33 13 18 1020.7 1020.7 14.6
04/12:30pm 15.4 11.9 13.4 88 1.1 SSW 24 33 13 18 1020.9 1020.9 14.6
04/12:19pm 14.6 15.0 13.7 94 0.5 W 4 24 2 13 1021.0 1021.0 14.6
04/12:00pm 14.1 14.0 13.4 96 0.4 W 6 11 3 6 1021.1 1021.1 14.4
04/11:30am 14.4 13.1 13.7 96 0.4 SW 13 17 7 9 1021.5 1021.5 8.0
04/11:12am 14.6 12.9 13.5 93 0.6 WSW 15 24 8 13 1021.5 1021.5 3.6
04/11:00am 15.2 12.9 14.0 92 0.7 SW 19 26 10 14 1021.5 1021.5 3.2
04/10:30am 14.1 12.2 13.0 93 0.6 SSW 15 24 8 13 1021.6 1021.6 3.2
04/10:19am 14.2 12.0 13.3 94 0.5 SW 17 20 9 11 1021.4 1021.4 1.8
04/10:07am 14.1 11.9 13.2 94 0.5 WSW 17 24 9 13 1021.5 1021.5 0.6
04/10:00am 14.0 11.4 13.1 94 0.5 WSW 19 26 10 14 1021.5 1021.5 0.4
04/09:30am 13.8 11.5 13.1 96 0.4 W 17 24 9 13 1021.3 1021.3 0.0
04/09:00am 13.7 11.3 12.8 94 0.5 WSW 17 24 9 13 1021.0 1021.0 7.0
04/08:30am 13.7 11.7 12.6 93 0.6 WSW 15 19 8 10 1020.8 1020.8 6.4
04/08:29am 13.7 11.6 12.4 92 0.7 WSW 15 19 8 10 1020.8 1020.8 6.4
04/08:00am 14.1 12.3 12.2 88 1.0 W 13 19 7 10 1020.4 1020.3 6.2
04/07:30am 14.0 11.7 11.8 86 1.2 WSW 15 20 8 11 1019.8 1019.7 6.2
04/07:00am 13.1 11.0 11.2 88 1.0 W 13 22 7 12 1019.2 1019.1 6.2
04/06:30am 12.5 9.5 10.8 89 0.9 SW 17 26 9 14 1018.4 1018.3 6.2
04/06:00am 12.0 9.6 10.2 89 0.9 SW 13 17 7 9 1018.1 1018.0 6.2
04/05:30am 12.4 9.4 10.7 89 0.9 WSW 17 26 9 14 1017.8 1017.7 6.2
04/05:00am 12.7 9.3 10.6 87 1.1 WSW 19 26 10 14 1017.4 1017.3 6.2
04/04:30am 12.5 9.2 11.0 90 0.8 WSW 19 28 10 15 1016.9 1016.8 6.2
04/04:00am 12.6 9.4 11.1 91 0.8 WSW 19 26 10 14 1016.4 1016.3 6.0
04/03:30am 12.7 9.3 11.4 92 0.7 WSW 20 28 11 15 1015.8 1015.7 6.0
04/03:00am 13.3 8.4 11.4 88 1.0 SW 28 39 15 21 1015.3 1015.2 6.0
04/02:30am 13.1 9.4 11.6 91 0.8 SW 22 32 12 17 1014.9 1014.8 5.6
04/02:00am 12.0 9.4 10.6 91 0.7 W 15 20 8 11 1014.8 1014.7 5.6
04/01:30am 11.2 11.3 10.0 92 0.6 CALM 0 9 0 5 1015.2 1015.1 5.6
04/01:00am 11.2 9.2 10.0 92 0.6 WNW 11 13 6 7 1015.2 1015.1 5.2
04/12:30am 11.7 7.6 8.5 81 1.6 W 20 28 11 15 1014.4 1014.3 3.8
04/12:00am 12.1 6.7 8.0 76 2.0 WNW 26 33 14 18 1013.6 1013.5 3.0
 
Date/Time
EST
Temp
°C
App
Temp
°C
Dew
Point
Rel
Hum
%
Delta-T
°C
Wind Press
QNH
hPa
Press
MSL
hPa
Rain
since 9 am
mm
Dir
 
Spd
km/h
Gust
km/h
Spd
kts
Gust
kts
03/11:30pm 11.5 7.3 8.2 80 1.6 WNW 20 26 11 14 1013.3 1013.2 3.0
03/11:00pm 11.9 6.9 8.0 77 1.9 WNW 24 30 13 16 1013.5 1013.4 2.8
03/10:30pm 12.4 7.0 6.5 67 2.8 WNW 24 32 13 17 1012.8 1012.7 2.8
03/10:00pm 12.9 7.6 6.9 67 2.9 WNW 24 32 13 17 1012.8 1012.7 2.8
03/09:30pm 13.2 7.2 7.2 67 2.9 WNW 28 35 15 19 1012.8 1012.7 2.8
03/09:00pm 13.4 7.4 7.0 65 3.1 WNW 28 37 15 20 1012.3 1012.2 2.8
03/08:30pm 13.6 7.2 6.8 63 3.3 WNW 30 39 16 21 1011.8 1011.7 2.8
03/08:00pm 13.5 7.5 6.9 64 3.2 WNW 28 35 15 19 1011.1 1011.0 2.8
03/07:30pm 13.8 8.1 6.8 62 3.4 WNW 26 33 14 18 1010.9 1010.8 2.8
03/07:00pm 13.8 8.5 6.8 62 3.4 WNW 24 33 13 18 1010.5 1010.4 2.8
03/06:30pm 14.5 8.8 6.7 59 3.8 WNW 26 33 14 18 1009.8 1009.7 2.8
03/06:00pm 14.6 9.0 7.3 61 3.6 WNW 26 33 14 18 1009.5 1009.4 2.8
03/05:30pm 14.9 10.3 8.1 64 3.4 WNW 22 30 12 16 1008.9 1008.8 2.8
03/05:00pm 15.9 11.0 8.4 61 3.8 WNW 24 32 13 17 1008.2 1008.2 2.8
03/04:30pm 16.3 9.8 8.0 58 4.2 WNW 32 41 17 22 1007.7 1007.7 2.8
03/04:00pm 16.4 10.1 7.6 56 4.4 WNW 30 39 16 21 1007.4 1007.4 2.8
03/03:30pm 16.3 9.9 8.7 60 3.9 WNW 32 43 17 23 1007.2 1007.2 2.8
03/03:00pm 14.2 8.4 9.3 72 2.5 WNW 30 35 16 19 1007.4 1007.4 2.8
03/02:30pm 12.9 7.0 9.1 78 1.9 NW 30 41 16 22 1007.0 1007.0 2.8
03/02:00pm 13.0 6.5 9.0 77 2.0 WNW 33 46 18 25 1007.2 1007.2 2.8
03/01:30pm 13.1 7.8 10.0 81 1.6 WSW 28 43 15 23 1006.9 1006.9 2.0
03/01:16pm 13.4 8.1 9.7 78 1.9 WSW 28 50 15 27 1006.8 1006.8 1.4
03/01:00pm 15.2 10.4 9.0 66 3.2 WSW 24 35 13 19 1006.7 1006.7 0.0
03/12:30pm 17.0 10.4 5.9 48 5.4 WNW 30 37 16 20 1006.9 1006.9 0.0
03/12:00pm 17.6 11.3 5.7 45 5.8 WNW 28 46 15 25 1007.1 1007.1 0.0
03/11:30am 18.0 10.6 5.2 43 6.2 WNW 33 46 18 25 1007.0 1007.0 0.0
03/11:00am 18.0 10.9 5.5 43 6.1 WNW 32 46 17 25 1007.1 1007.1 0.0
03/10:30am 17.5 9.7 5.0 43 6.0 WNW 35 50 19 27 1006.9 1006.9 0.0
03/10:00am 17.5 9.0 5.3 44 5.9 WNW 39 52 21 28 1006.8 1006.8 0.0
03/09:30am 17.8 10.3 6.3 47 5.7 NW 35 43 19 23 1006.5 1006.5 0.0
03/09:00am 17.2 10.9 7.2 51 5.0 NW 30 41 16 22 1006.6 1006.6 8.8
03/08:30am 16.4 11.3 9.3 63 3.7 NW 26 35 14 19 1006.7 1006.7 8.8
03/08:00am 15.0 11.9 10.2 73 2.5 WNW 17 22 9 12 1006.5 1006.5 8.8
03/07:30am 13.8 14.3 11.6 86 1.2 CALM 0 0 0 0 1006.3 1006.3 8.8
03/07:00am 12.4 10.6 10.9 90 0.8 N 11 15 6 8 1006.1 1006.1 8.8
03/06:30am 11.3 9.3 10.3 94 0.5 NNW 11 11 6 6 1005.9 1005.9 8.8
03/06:00am 12.1 10.7 10.8 92 0.7 N 9 11 5 6 1005.8 1005.8 8.8
03/05:30am 12.5 11.2 11.2 92 0.7 N 9 11 5 6 1005.9 1005.9 8.8
03/05:00am 12.4 10.3 11.1 92 0.7 N 13 20 7 11 1005.5 1005.5 8.8
03/04:30am 12.5 9.1 11.2 92 0.7 NE 20 33 11 18 1005.1 1005.1 8.8
03/04:17am 12.8 9.0 11.1 89 0.9 NNE 22 37 12 20 1005.3 1005.3 8.6
03/04:00am 12.1 8.7 11.1 94 0.5 NNE 20 28 11 15 1007.4 1007.4 8.0
03/03:33am 12.6 9.7 10.9 89 0.9 N 17 26 9 14 1007.7 1007.7 6.0
03/03:30am 12.4 9.9 10.9 90 0.8 N 15 26 8 14 1007.7 1007.7 5.6
03/03:19am 11.7 10.2 10.7 94 0.5 NNE 9 11 5 6 1007.5 1007.5 5.0
03/03:00am 11.8 10.4 10.8 94 0.5 NE 9 13 5 7 1007.1 1007.1 4.2
03/02:30am 12.2 11.4 11.1 93 0.6 SSE 6 7 3 4 1008.0 1008.0 3.0
03/02:00am 12.0 11.2 11.0 94 0.5 NNE 6 9 3 5 1008.9 1008.8 2.4
03/01:30am 12.5 12.0 10.6 88 1.0 N 4 7 2 4 1009.1 1009.0 1.2
03/01:00am 12.5 12.5 11.2 92 0.7 NNE 2 7 1 4 1008.7 1008.6 0.8
03/12:30am 12.6 10.2 10.1 85 1.3 N 13 19 7 10 1008.9 1008.8 0.6
03/12:00am 14.5 10.8 7.9 64 3.3 NNW 17 24 9 13 1009.3 1009.2 0.0
 
Date/Time
EST
Temp
°C
App
Temp
°C
Dew
Point
Rel
Hum
%
Delta-T
°C
Wind Press
QNH
hPa
Press
MSL
hPa
Rain
since 9 am
mm
Dir
 
Spd
km/h
Gust
km/h
Spd
kts
Gust
kts
02/11:30pm 15.1 12.0 7.4 60 3.8 NE 13 17 7 9 1007.7 1007.7 0.0
02/11:00pm 14.8 11.8 7.5 61 3.6 NE 13 20 7 11 1007.8 1007.8 0.0
02/10:30pm 14.4 11.5 8.2 66 3.1 NE 13 17 7 9 1009.0 1008.9 0.0
02/10:00pm 14.5 12.1 8.6 67 3.0 NE 11 15 6 8 1009.8 1009.7 0.0
02/09:30pm 14.7 11.7 7.9 63 3.4 NE 13 15 7 8 1010.5 1010.4 0.0
02/09:00pm 15.0 11.9 7.1 59 3.9 ENE 13 17 7 9 1010.8 1010.7 0.0
02/08:30pm 15.5 12.1 6.0 53 4.6 NNE 13 15 7 8 1011.2 1011.1 0.0
02/08:00pm 15.7 12.2 5.4 50 4.9 NE 13 17 7 9 1011.6 1011.5 0.0
02/07:30pm 15.8 12.0 5.6 50 4.9 ENE 15 19 8 10 1011.9 1011.8 0.0
02/07:00pm 16.2 12.4 5.8 50 5.0 NE 15 20 8 11 1012.3 1012.2 0.0
02/06:30pm 16.4 12.6 5.6 49 5.2 NE 15 26 8 14 1012.4 1012.3 0.0
02/06:00pm 16.5 12.7 6.0 50 5.1 ENE 15 19 8 10 1012.5 1012.4 0.0
02/05:30pm 16.9 13.0 5.5 47 5.5 NE 15 19 8 10 1012.5 1012.4 0.0
02/05:00pm 18.1 14.1 4.7 41 6.4 ENE 15 20 8 11 1012.4 1012.3 0.0
02/04:30pm 18.8 14.9 3.4 36 7.2 NE 13 17 7 9 1012.5 1012.4 0.0
02/04:00pm 19.8 14.9 2.2 31 8.1 NE 17 22 9 12 1012.4 1012.3 0.0
02/03:30pm 20.4 16.5 3.3 32 8.1 ENE 13 17 7 9 1012.5 1012.4 0.0
02/03:00pm 20.2 16.7 3.3 32 8.0 NNE 11 32 6 17 1012.9 1012.8 0.0
02/02:30pm 20.0 17.1 2.6 31 8.1 NNW 7 13 4 7 1013.5 1013.4 0.0
02/02:00pm 19.6 15.5 2.2 31 8.0 NNW 13 19 7 10 1014.0 1013.9 0.0
02/01:30pm 19.0 14.4 1.8 31 7.8 NNW 15 24 8 13 1014.5 1014.4 0.0
02/01:00pm 19.0 15.3 4.3 38 7.0 NW 13 20 7 11 1014.8 1014.7 0.0
02/12:30pm 19.5 15.8 4.5 37 7.2 NW 13 19 7 10 1015.5 1015.4 0.0
02/12:00pm 18.1 13.6 4.4 40 6.5 NW 17 22 9 12 1016.2 1016.1 0.0
02/11:30am 16.9 12.9 2.8 39 6.4 NW 13 19 7 10 1016.9 1016.8 0.0
02/11:00am 16.3 13.4 4.6 46 5.5 N 9 13 5 7 1017.3 1017.2 0.0
02/10:30am 14.6 11.2 3.9 48 4.9 NNW 11 15 6 8 1017.9 1017.8 0.0
02/10:00am 14.6 11.1 3.3 46 5.1 NNW 11 15 6 8 1018.2 1018.1 0.0
02/09:30am 13.1 9.3 4.0 54 4.1 NNW 13 17 7 9 1018.6 1018.5 0.0
02/09:00am 13.3 8.7 3.5 51 4.4 NW 17 22 9 12 1018.8 1018.7 0.0
02/08:30am 11.8 7.6 4.0 59 3.5 NW 15 19 8 10 1018.8 1018.7 0.0
02/08:00am 10.9 6.8 4.2 63 3.0 NW 15 19 8 10 1018.6 1018.5 0.0
02/07:30am 9.7 5.2 4.3 69 2.4 NW 17 20 9 11 1018.4 1018.3 0.0
02/07:00am 8.2 4.8 3.8 74 1.9 NW 11 13 6 7 1018.2 1018.1 0.0
02/06:30am 7.2 3.6 2.9 74 1.8 NW 11 13 6 7 1018.1 1018.0 0.0
02/06:00am 6.6 2.3 3.3 79 1.4 NW 15 19 8 10 1017.9 1017.8 0.0
02/05:30am 6.0 2.0 3.1 82 1.2 NW 13 13 7 7 1017.5 1017.4 0.0
02/05:00am 6.7 3.1 2.8 76 1.6 NW 11 13 6 7 1017.2 1017.1 0.0
02/04:30am 6.8 2.1 3.0 77 1.6 NW 17 17 9 9 1017.1 1017.0 0.0
02/04:00am 4.7 3.1 2.5 86 0.9 CALM 0 0 0 0 1017.0 1016.9 0.0
02/03:30am 6.5 4.9 2.6 76 1.6 CALM 0 0 0 0 1016.8 1016.7 0.0
02/03:00am 6.3 3.6 2.7 78 1.5 WNW 6 9 3 5 1016.9 1016.8 0.0
02/02:30am 6.9 2.5 2.5 73 1.8 WNW 15 15 8 8 1017.0 1016.9 0.0
02/02:00am 7.0 2.5 2.4 72 1.9 NW 15 15 8 8 1016.9 1016.8 0.0
02/01:30am 7.2 2.8 2.6 72 1.9 NW 15 17 8 9 1016.9 1016.8 0.0
02/01:00am 7.3 2.9 2.5 71 2.0 WNW 15 15 8 8 1016.7 1016.6 0.0
02/12:30am 8.1 4.0 2.0 65 2.5 WNW 13 15 7 8 1016.4 1016.3 0.0
02/12:00am 8.2 4.2 2.7 68 2.3 WNW 13 15 7 8 1016.4 1016.3 0.0
 
Date/Time
EST
Temp
°C
App
Temp
°C
Dew
Point
Rel
Hum
%
Delta-T
°C
Wind Press
QNH
hPa
Press
MSL
hPa
Rain
since 9 am
mm
Dir
 
Spd
km/h
Gust
km/h
Spd
kts
Gust
kts
01/11:30pm 8.0 3.8 3.8 75 1.8 WNW 15 15 8 8 1016.5 1016.4 0.0
01/11:00pm 7.5 3.3 4.0 78 1.5 NW 15 17 8 9 1016.3 1016.2 0.0
01/10:30pm 5.3 4.1 4.4 94 0.4 CALM 0 0 0 0 1016.2 1016.1 0.0

Other Formats:

Comma delimited format used in spreadsheet applications
http://www.bom.gov.au/fwo/IDN60801/IDN60801.94776.axf

JavaScript Object Notation format (JSON) in row-major order
http://www.bom.gov.au/fwo/IDN60801/IDN60801.94776.json